Time;durP1;ratioP1;P1;durP2;ratioP2;P2;SDS_P1;SDS_P2;PMS_P1;PMS_P2;Temp;Humidity;BMP_temperature;BMP_pressure;BME280_temperature;BME280_humidity;BME280_pressure;Samples;Min_cycle;Max_cycle;Signal;HPM_P1;HPM_P2
2021/10/21 00:01:07;;;;;;;75.63;9.15;;;12.60;99.90;;;;;;5032751;28;20473;-72
2021/10/21 00:03:35;;;;;;;72.10;9.35;;;12.60;99.90;;;;;;5032992;28;20030;-72
2021/10/21 00:06:00;;;;;;;61.58;8.10;;;12.50;99.90;;;;;;5033225;28;20030;-72
2021/10/21 00:08:26;;;;;;;74.15;9.82;;;12.50;99.90;;;;;;5062212;23;20595;-69
2021/10/21 00:10:51;;;;;;;59.08;7.93;;;12.60;99.90;;;;;;5053021;28;20031;-69
2021/10/21 00:13:17;;;;;;;74.47;8.85;;;12.60;99.90;;;;;;5052329;28;20021;-68
2021/10/21 00:15:43;;;;;;;62.22;8.38;;;12.60;99.90;;;;;;5052922;28;20044;-69
2021/10/21 00:18:09;;;;;;;69.07;8.65;;;12.70;99.90;;;;;;5052272;28;20021;-69
2021/10/21 00:20:35;;;;;;;50.33;7.85;;;12.70;99.90;;;;;;5053221;28;20044;-69
2021/10/21 00:23:00;;;;;;;53.53;9.70;;;12.70;99.90;;;;;;5042533;28;20026;-69
2021/10/21 00:25:26;;;;;;;53.15;7.90;;;12.70;99.90;;;;;;5032298;28;20034;-69
2021/10/21 00:27:51;;;;;;;55.60;8.60;;;12.60;99.90;;;;;;5032778;28;20530;-69
2021/10/21 00:30:17;;;;;;;68.22;8.18;;;12.60;99.90;;;;;;5046380;28;20028;-69
2021/10/21 00:32:42;;;;;;;56.50;10.55;;;12.60;99.90;;;;;;5052851;28;20017;-69
2021/10/21 00:35:09;;;;;;;68.95;8.95;;;12.60;99.90;;;;;;5053337;28;20025;-69
2021/10/21 00:37:36;;;;;;;61.15;8.07;;;12.60;99.90;;;;;;5052313;28;20036;-69
2021/10/21 00:40:03;;;;;;;60.03;7.90;;;12.60;99.90;;;;;;5035924;28;20062;-69
2021/10/21 00:42:29;;;;;;;69.00;8.85;;;12.50;99.90;;;;;;5035707;28;20057;-69
2021/10/21 00:44:54;;;;;;;55.20;8.68;;;12.50;99.90;;;;;;5046945;28;20062;-69
2021/10/21 00:47:20;;;;;;;40.70;5.30;;;12.40;99.90;;;;;;5055777;28;20443;-69
2021/10/21 00:49:46;;;;;;;36.90;5.60;;;12.30;99.90;;;;;;5056468;28;20380;-69
2021/10/21 00:52:12;;;;;;;43.78;6.22;;;12.20;99.90;;;;;;5056819;28;20022;-69
2021/10/21 00:54:37;;;;;;;44.53;6.50;;;12.10;99.90;;;;;;5056441;28;20415;-69
2021/10/21 00:57:05;;;;;;;57.20;6.57;;;12.10;99.90;;;;;;5056597;28;20041;-69
2021/10/21 00:59:32;;;;;;;40.85;5.30;;;12.00;99.90;;;;;;5056409;28;20032;-69
2021/10/21 01:01:58;;;;;;;50.22;5.88;;;12.00;99.90;;;;;;5056334;28;20036;-69
2021/10/21 01:04:24;;;;;;;49.10;6.53;;;12.00;99.90;;;;;;5056122;28;20128;-69
2021/10/21 01:06:50;;;;;;;52.90;6.35;;;11.90;99.90;;;;;;5056802;28;20017;-69
2021/10/21 01:09:17;;;;;;;39.90;6.18;;;11.90;99.90;;;;;;5055268;28;20032;-69
2021/10/21 01:11:44;;;;;;;56.10;5.78;;;11.80;99.90;;;;;;5056394;28;20025;-69
2021/10/21 01:14:09;;;;;;;51.20;6.82;;;11.80;99.90;;;;;;5054332;28;20082;-69
2021/10/21 01:16:40;;;;;;;69.70;9.35;;;11.80;99.90;;;;;;5045578;28;20030;-69
2021/10/21 01:19:19;;;;;;;54.03;6.43;;;11.70;99.90;;;;;;5051956;28;20045;-69
2021/10/21 01:21:46;;;;;;;54.35;7.18;;;11.70;99.90;;;;;;5055851;28;20025;-69
2021/10/21 01:24:12;;;;;;;55.58;6.22;;;11.70;99.90;;;;;;5071008;28;20025;-69
2021/10/21 01:26:38;;;;;;;55.72;6.93;;;11.70;99.90;;;;;;5054038;28;20483;-69
2021/10/21 01:29:04;;;;;;;61.35;7.25;;;11.70;99.90;;;;;;5055785;28;20029;-69
2021/10/21 01:31:30;;;;;;;54.75;7.10;;;11.70;99.90;;;;;;5039591;28;20030;-69
2021/10/21 01:33:55;;;;;;;46.17;7.32;;;11.70;99.90;;;;;;5047987;28;20055;-69
2021/10/21 01:36:21;;;;;;;73.22;8.73;;;11.70;99.90;;;;;;5055727;28;20028;-69
2021/10/21 01:38:46;;;;;;;43.50;5.63;;;11.70;99.90;;;;;;5047685;28;20030;-69
2021/10/21 01:41:12;;;;;;;50.92;6.05;;;11.80;99.90;;;;;;5035700;28;20037;-69
2021/10/21 01:43:42;;;;;;;46.67;6.88;;;11.80;99.90;;;;;;5034984;28;20057;-69
2021/10/21 01:46:09;;;;;;;58.90;8.13;;;11.70;99.90;;;;;;5035777;28;20489;-70
2021/10/21 01:48:35;;;;;;;58.80;7.40;;;11.70;99.90;;;;;;5037576;28;20448;-69
2021/10/21 01:51:00;;;;;;;67.43;7.55;;;11.70;99.90;;;;;;5054805;28;20017;-69
2021/10/21 01:53:26;;;;;;;66.43;7.05;;;11.70;99.90;;;;;;5055296;28;20538;-69
2021/10/21 01:55:51;;;;;;;62.08;6.45;;;11.70;99.90;;;;;;5055236;28;20065;-69
2021/10/21 01:58:17;;;;;;;46.17;7.55;;;11.70;99.90;;;;;;5055229;28;20448;-69
2021/10/21 02:00:42;;;;;;;51.67;7.68;;;11.60;99.90;;;;;;5047799;28;20509;-69
2021/10/21 02:03:08;;;;;;;96.93;11.30;;;11.60;99.90;;;;;;5039171;28;20477;-69
2021/10/21 02:05:33;;;;;;;66.57;8.02;;;11.70;99.90;;;;;;5055182;28;20055;-69
2021/10/21 02:07:59;;;;;;;52.40;7.80;;;11.70;99.90;;;;;;5054815;28;20051;-69
2021/10/21 02:10:25;;;;;;;55.05;7.93;;;11.70;99.90;;;;;;5054407;28;20036;-69
2021/10/21 02:12:51;;;;;;;63.38;7.95;;;11.70;99.90;;;;;;5051836;28;20032;-68
2021/10/21 02:15:17;;;;;;;61.42;8.00;;;11.70;99.90;;;;;;5054569;28;20107;-68
2021/10/21 02:17:45;;;;;;;61.75;7.20;;;11.80;99.90;;;;;;5038742;28;20401;-69
2021/10/21 02:20:12;;;;;;;47.35;8.65;;;11.80;99.90;;;;;;5034441;28;20100;-69
2021/10/21 02:22:39;;;;;;;72.10;7.45;;;11.70;99.90;;;;;;5047424;28;20040;-69
2021/10/21 02:25:09;;;;;;;60.13;7.30;;;11.80;99.90;;;;;;5054669;28;20623;-69
2021/10/21 02:27:35;;;;;;;70.38;9.70;;;11.80;99.90;;;;;;5053215;28;20044;-68
2021/10/21 02:30:00;;;;;;;60.13;7.47;;;11.80;99.90;;;;;;5054134;28;20492;-69
2021/10/21 02:32:26;;;;;;;53.65;8.25;;;11.80;99.90;;;;;;5053534;28;20025;-69
2021/10/21 02:34:51;;;;;;;55.10;7.53;;;11.70;99.90;;;;;;5054193;28;20024;-69
2021/10/21 02:37:17;;;;;;;39.35;5.50;;;11.80;99.90;;;;;;5054823;28;20036;-69
2021/10/21 02:39:43;;;;;;;47.58;8.10;;;11.80;99.90;;;;;;5053821;28;20392;-69
2021/10/21 02:42:08;;;;;;;47.05;7.28;;;11.80;99.90;;;;;;5054227;28;20021;-69
2021/10/21 02:44:34;;;;;;;39.63;6.25;;;11.70;99.90;;;;;;5046854;28;20436;-69
2021/10/21 02:47:00;;;;;;;51.63;6.82;;;11.80;99.90;;;;;;5034718;28;20025;-69
2021/10/21 02:49:25;;;;;;;58.90;8.02;;;11.70;99.90;;;;;;5048293;28;20036;-69
2021/10/21 02:51:51;;;;;;;43.83;6.43;;;11.70;99.90;;;;;;5053880;28;20104;-68
2021/10/21 02:54:17;;;;;;;63.25;6.72;;;11.70;99.90;;;;;;5053888;28;20086;-69
2021/10/21 02:56:42;;;;;;;42.55;5.43;;;11.70;99.90;;;;;;5048785;28;20053;-69
2021/10/21 02:59:08;;;;;;;38.30;6.53;;;11.70;99.90;;;;;;5049690;28;20025;-68
2021/10/21 03:01:34;;;;;;;48.92;5.90;;;11.70;99.90;;;;;;5053529;28;20150;-69
2021/10/21 03:04:00;;;;;;;60.58;7.35;;;11.70;99.90;;;;;;5053446;28;20384;-69
2021/10/21 03:06:25;;;;;;;46.70;6.72;;;11.70;99.90;;;;;;5053945;28;20033;-69
2021/10/21 03:08:51;;;;;;;46.70;6.38;;;11.70;99.90;;;;;;5046545;28;20048;-69
2021/10/21 03:11:17;;;;;;;60.22;7.80;;;11.70;99.90;;;;;;5033460;28;20521;-69
2021/10/21 03:13:42;;;;;;;47.47;7.00;;;11.70;99.90;;;;;;5036594;28;20028;-69
2021/10/21 03:16:08;;;;;;;44.20;5.18;;;11.70;99.90;;;;;;5043809;28;20499;-69
2021/10/21 03:18:33;;;;;;;38.25;5.93;;;11.70;99.90;;;;;;5051685;28;20025;-69
2021/10/21 03:20:59;;;;;;;28.30;5.28;;;11.70;99.90;;;;;;5053722;28;20029;-69
2021/10/21 03:23:26;;;;;;;37.90;5.15;;;11.70;99.90;;;;;;5049123;28;20032;-69
2021/10/21 03:25:52;;;;;;;38.58;5.13;;;11.70;99.90;;;;;;5053260;28;20090;-69
2021/10/21 03:28:18;;;;;;;46.60;6.10;;;11.70;99.90;;;;;;5052006;28;20053;-69
2021/10/21 03:30:44;;;;;;;44.63;6.63;;;11.70;99.90;;;;;;5033739;28;20511;-69
2021/10/21 03:33:11;;;;;;;41.58;5.47;;;11.60;99.90;;;;;;5037551;28;20112;-69
2021/10/21 03:35:36;;;;;;;38.05;6.05;;;11.70;99.90;;;;;;5053524;28;20021;-69
2021/10/21 03:38:02;;;;;;;44.28;4.82;;;11.70;99.90;;;;;;5052827;28;20437;-69
2021/10/21 03:40:28;;;;;;;30.48;4.95;;;11.60;99.90;;;;;;5052489;28;20392;-69
2021/10/21 03:42:53;;;;;;;46.75;7.63;;;11.60;99.90;;;;;;5053415;28;20036;-69
2021/10/21 03:45:19;;;;;;;27.25;5.72;;;11.60;99.90;;;;;;5038758;28;20061;-69
2021/10/21 03:47:44;;;;;;;39.42;5.15;;;11.60;99.90;;;;;;5032799;28;20021;-68
2021/10/21 03:50:10;;;;;;;36.67;6.10;;;11.60;99.90;;;;;;5041844;28;20499;-69
2021/10/21 03:52:36;;;;;;;37.72;5.28;;;11.60;99.90;;;;;;5053505;28;20023;-69
2021/10/21 03:55:02;;;;;;;41.00;5.68;;;11.60;99.90;;;;;;5052929;28;20404;-69
2021/10/21 03:57:28;;;;;;;48.88;5.53;;;11.60;99.90;;;;;;5052812;28;20412;-69
2021/10/21 03:59:53;;;;;;;31.67;5.00;;;11.60;99.90;;;;;;5053141;28;20027;-69
2021/10/21 04:02:19;;;;;;;32.28;6.30;;;11.60;99.90;;;;;;5053106;28;20116;-69
2021/10/21 04:04:44;;;;;;;39.00;4.93;;;11.50;99.90;;;;;;5052805;28;20037;-69
2021/10/21 04:07:10;;;;;;;45.67;6.78;;;11.50;99.90;;;;;;5053084;28;20427;-69
2021/10/21 04:09:35;;;;;;;31.23;5.65;;;11.50;99.90;;;;;;5038760;28;20073;-69
2021/10/21 04:12:01;;;;;;;33.88;5.65;;;11.50;99.90;;;;;;5033268;28;20072;-69
2021/10/21 04:14:27;;;;;;;43.45;7.78;;;11.50;99.90;;;;;;5039552;28;20025;-69
2021/10/21 04:16:52;;;;;;;50.80;5.93;;;11.50;99.90;;;;;;5055390;28;20025;-69
2021/10/21 04:19:18;;;;;;;46.92;7.13;;;11.40;99.90;;;;;;5056950;28;20024;-69
2021/10/21 04:21:43;;;;;;;31.17;5.63;;;11.50;99.90;;;;;;5056527;28;20029;-69
2021/10/21 04:24:09;;;;;;;39.80;5.18;;;11.40;99.90;;;;;;5057628;28;20475;-70
2021/10/21 04:26:35;;;;;;;40.15;5.57;;;11.40;99.90;;;;;;5056886;28;20040;-69
2021/10/21 04:29:00;;;;;;;27.75;4.68;;;11.30;99.90;;;;;;5055225;28;20036;-69
2021/10/21 04:31:26;;;;;;;40.22;5.70;;;11.30;99.90;;;;;;5057266;28;20021;-69
2021/10/21 04:33:51;;;;;;;38.40;5.80;;;11.30;99.90;;;;;;5055977;28;20098;-69
2021/10/21 04:36:17;;;;;;;32.25;6.35;;;11.30;99.90;;;;;;5052617;28;20076;-69
2021/10/21 04:38:43;;;;;;;34.95;5.82;;;11.20;99.90;;;;;;5036951;28;20060;-69
2021/10/21 04:41:08;;;;;;;32.70;5.32;;;11.20;99.90;;;;;;5036852;28;20040;-69
2021/10/21 04:43:34;;;;;;;34.47;5.10;;;11.20;99.90;;;;;;5054195;28;20029;-69
2021/10/21 04:45:59;;;;;;;32.95;5.75;;;11.10;99.90;;;;;;5036657;28;20061;-69
2021/10/21 04:48:25;;;;;;;36.33;6.38;;;11.10;99.90;;;;;;5046228;28;20021;-69
2021/10/21 04:50:50;;;;;;;28.88;4.65;;;11.10;99.90;;;;;;5056579;28;20064;-69
2021/10/21 04:53:16;;;;;;;36.38;6.28;;;11.10;99.90;;;;;;5055808;28;20078;-69
2021/10/21 04:55:41;;;;;;;25.08;4.50;;;11.00;99.90;;;;;;5056603;28;20074;-69
2021/10/21 04:58:07;;;;;;;29.98;5.75;;;11.00;99.90;;;;;;5056292;28;20025;-69
2021/10/21 05:00:34;;;;;;;27.92;6.15;;;10.90;99.90;;;;;;5054361;28;20522;-69
2021/10/21 05:03:11;;;;;;;32.65;5.22;;;10.90;99.90;;;;;;5055971;28;20028;-69
2021/10/21 05:05:39;;;;;;;62.95;18.35;;;10.90;99.90;;;;;;5056279;28;20112;-69
2021/10/21 05:08:04;;;;;;;77.28;29.60;;;10.90;99.90;;;;;;5055183;28;20071;-69
2021/10/21 05:10:30;;;;;;;47.22;15.20;;;10.90;99.90;;;;;;5036301;28;20041;-70
2021/10/21 05:12:56;;;;;;;28.88;7.47;;;10.80;99.90;;;;;;5036557;28;20056;-69
2021/10/21 05:15:23;;;;;;;15.88;4.18;;;10.90;99.90;;;;;;5049989;28;20430;-69
2021/10/21 05:17:49;;;;;;;27.75;5.38;;;10.80;99.90;;;;;;5055902;28;20021;-69
2021/10/21 05:20:15;;;;;;;45.63;5.50;;;10.80;99.90;;;;;;5055478;28;20615;-69
2021/10/21 05:22:40;;;;;;;34.08;4.82;;;10.80;99.90;;;;;;5055845;28;20511;-68
2021/10/21 05:25:06;;;;;;;27.40;4.75;;;10.80;99.90;;;;;;5056097;28;20112;-69
2021/10/21 05:27:32;;;;;;;36.72;5.10;;;10.80;99.90;;;;;;5055712;28;20017;-69
2021/10/21 05:29:58;;;;;;;25.40;4.78;;;10.80;99.90;;;;;;5055682;28;20017;-69
2021/10/21 05:32:24;;;;;;;17.60;3.80;;;10.70;99.90;;;;;;5055218;28;20031;-69
2021/10/21 05:34:49;;;;;;;21.33;4.38;;;10.60;99.90;;;;;;5055573;28;20025;-69
2021/10/21 05:37:15;;;;;;;24.90;4.53;;;10.50;99.90;;;;;;5055630;28;20028;-69
2021/10/21 05:39:41;;;;;;;20.42;3.55;;;10.50;99.90;;;;;;5055639;28;20021;-69
2021/10/21 05:42:07;;;;;;;16.80;3.88;;;10.40;99.90;;;;;;5055521;28;20032;-69
2021/10/21 05:44:33;;;;;;;22.30;3.53;;;10.40;99.90;;;;;;5054993;28;20044;-69
2021/10/21 05:46:59;;;;;;;33.35;6.35;;;10.40;99.90;;;;;;5055321;28;20017;-69
2021/10/21 05:49:24;;;;;;;21.58;5.38;;;10.50;99.90;;;;;;5055332;28;20021;-69
2021/10/21 05:51:50;;;;;;;31.67;6.55;;;10.40;99.90;;;;;;5055435;28;20021;-69
2021/10/21 05:54:16;;;;;;;20.80;3.97;;;10.40;99.90;;;;;;5055172;28;20017;-69
2021/10/21 05:56:41;;;;;;;19.67;5.50;;;10.30;99.90;;;;;;5055275;28;20127;-69
2021/10/21 05:59:07;;;;;;;18.35;3.22;;;10.30;99.90;;;;;;5054697;28;20025;-69
2021/10/21 06:01:32;;;;;;;33.80;11.75;;;10.20;99.90;;;;;;5055199;28;20029;-69
2021/10/21 06:03:58;;;;;;;35.40;13.23;;;10.20;99.90;;;;;;5054963;28;20036;-69
2021/10/21 06:06:24;;;;;;;29.33;10.57;;;10.20;99.90;;;;;;5055117;28;20021;-69
2021/10/21 06:08:50;;;;;;;21.95;9.45;;;10.20;99.90;;;;;;5054953;28;20381;-69
2021/10/21 06:11:16;;;;;;;22.30;6.85;;;10.20;99.90;;;;;;5054522;28;20369;-69
2021/10/21 06:13:42;;;;;;;12.30;3.13;;;10.20;99.90;;;;;;5054977;28;20502;-69
2021/10/21 06:16:07;;;;;;;13.73;4.43;;;10.10;99.90;;;;;;5055049;28;20033;-69
2021/10/21 06:18:34;;;;;;;10.68;2.80;;;10.00;99.90;;;;;;5054892;28;20550;-69
2021/10/21 06:21:01;;;;;;;17.67;3.42;;;9.90;99.90;;;;;;5054428;28;20061;-69
2021/10/21 06:23:27;;;;;;;15.80;2.85;;;9.80;99.90;;;;;;5069995;28;20115;-69
2021/10/21 06:25:53;;;;;;;16.27;2.20;;;9.80;99.90;;;;;;5054758;28;20112;-69
2021/10/21 06:28:19;;;;;;;10.63;1.83;;;9.70;99.90;;;;;;5054935;28;20100;-69
2021/10/21 06:30:47;;;;;;;11.15;2.05;;;9.70;99.90;;;;;;5054688;28;20048;-69
2021/10/21 06:33:13;;;;;;;10.90;2.35;;;9.70;99.90;;;;;;5054351;28;20013;-69
2021/10/21 06:35:41;;;;;;;9.75;1.83;;;9.60;99.90;;;;;;5054550;28;20024;-69
2021/10/21 06:38:07;;;;;;;7.47;2.13;;;9.50;99.90;;;;;;5054110;28;20029;-69
2021/10/21 06:40:33;;;;;;;15.63;2.72;;;9.50;99.90;;;;;;5053931;28;20052;-69
2021/10/21 06:42:58;;;;;;;17.65;6.15;;;9.60;99.90;;;;;;5054517;28;20059;-69
2021/10/21 06:45:24;;;;;;;21.83;3.92;;;9.60;99.90;;;;;;5054360;28;20025;-69
2021/10/21 06:47:50;;;;;;;21.15;5.28;;;9.50;99.90;;;;;;5067591;28;20021;-68
2021/10/21 06:50:16;;;;;;;31.05;9.55;;;9.60;99.90;;;;;;5069759;28;20475;-69
2021/10/21 06:52:47;;;;;;;15.30;3.83;;;9.60;99.90;;;;;;5053761;28;20021;-68
2021/10/21 06:55:14;;;;;;;17.33;3.58;;;9.60;99.90;;;;;;5034377;28;20388;-68
2021/10/21 06:57:51;;;;;;;17.08;3.50;;;9.50;99.90;;;;;;5034332;28;20175;-69
2021/10/21 07:00:18;;;;;;;26.02;4.90;;;9.50;99.90;;;;;;5049767;28;20483;-69
2021/10/21 07:02:44;;;;;;;10.82;2.45;;;9.50;99.90;;;;;;5033729;28;20061;-69
2021/10/21 07:05:11;;;;;;;8.85;1.88;;;9.40;99.90;;;;;;5046095;28;20035;-69
2021/10/21 07:07:37;;;;;;;13.68;2.47;;;9.40;99.90;;;;;;5069215;28;20021;-68
2021/10/21 07:10:06;;;;;;;13.68;1.95;;;9.40;99.90;;;;;;5069212;28;20052;-68
2021/10/21 07:12:32;;;;;;;19.10;2.70;;;9.40;99.90;;;;;;5053186;28;20017;-68
2021/10/21 07:14:59;;;;;;;14.75;2.75;;;9.30;99.90;;;;;;5053867;28;20065;-68
2021/10/21 07:17:24;;;;;;;13.68;2.40;;;9.40;99.90;;;;;;5053766;28;20116;-68
2021/10/21 07:19:50;;;;;;;14.35;2.28;;;9.30;99.90;;;;;;5069089;28;20065;-68
2021/10/21 07:22:16;;;;;;;13.38;1.83;;;9.30;99.90;;;;;;5053608;28;20060;-68
2021/10/21 07:24:43;;;;;;;17.73;2.30;;;9.30;99.90;;;;;;5053039;28;20390;-68
2021/10/21 07:27:09;;;;;;;15.45;2.28;;;9.40;99.90;;;;;;5053652;28;20381;-68
2021/10/21 07:29:36;;;;;;;14.02;2.72;;;9.40;99.90;;;;;;5053450;28;20055;-68
2021/10/21 07:32:01;;;;;;;13.55;3.38;;;9.40;99.90;;;;;;5053570;28;20100;-68
2021/10/21 07:34:27;;;;;;;15.75;3.50;;;9.40;99.90;;;;;;5053560;28;20096;-68
2021/10/21 07:36:53;;;;;;;20.35;4.07;;;9.40;99.90;;;;;;5053433;28;20468;-68
2021/10/21 07:39:22;;;;;;;20.17;4.55;;;9.50;99.90;;;;;;5052863;28;20112;-68
2021/10/21 07:41:48;;;;;;;14.80;2.63;;;9.40;99.90;;;;;;5052179;28;20021;-68
2021/10/21 07:44:14;;;;;;;17.90;2.45;;;9.60;99.90;;;;;;5053487;28;20017;-68
2021/10/21 07:46:41;;;;;;;22.83;2.80;;;9.40;99.90;;;;;;5053339;28;20029;-68
2021/10/21 07:49:07;;;;;;;21.40;1.90;;;9.40;99.90;;;;;;5053538;28;20017;-68
2021/10/21 07:51:34;;;;;;;24.73;2.75;;;9.40;99.90;;;;;;5068367;28;20100;-68
2021/10/21 07:53:59;;;;;;;18.45;2.75;;;9.40;99.90;;;;;;5052772;28;20024;-68
2021/10/21 07:56:28;;;;;;;14.55;2.60;;;9.40;99.90;;;;;;5053426;28;20029;-68
2021/10/21 07:58:54;;;;;;;14.95;2.17;;;9.40;99.90;;;;;;5052099;28;20039;-68
2021/10/21 08:01:20;;;;;;;21.58;2.50;;;9.50;99.90;;;;;;5053197;28;20032;-68
2021/10/21 08:03:45;;;;;;;12.52;2.10;;;9.50;99.90;;;;;;5050764;28;20040;-68
2021/10/21 08:06:11;;;;;;;14.48;2.10;;;9.50;99.90;;;;;;5053328;28;20025;-68
2021/10/21 08:08:36;;;;;;;15.73;3.25;;;9.50;99.90;;;;;;5047162;28;20454;-68
2021/10/21 08:11:02;;;;;;;25.38;2.95;;;9.50;99.90;;;;;;5053084;28;20361;-68
2021/10/21 08:13:29;;;;;;;17.88;2.22;;;9.50;99.90;;;;;;5052175;28;20029;-68
2021/10/21 08:15:55;;;;;;;15.93;2.20;;;9.50;99.90;;;;;;5049091;28;20017;-68
2021/10/21 08:18:21;;;;;;;13.38;2.30;;;9.50;99.90;;;;;;5052600;28;20079;-68
2021/10/21 08:20:47;;;;;;;21.98;3.10;;;9.50;99.90;;;;;;5053360;28;20431;-68
2021/10/21 08:23:13;;;;;;;18.77;3.22;;;9.50;99.90;;;;;;5034383;28;20022;-68
2021/10/21 08:25:39;;;;;;;17.80;2.15;;;9.50;99.90;;;;;;5032985;28;20086;-68
2021/10/21 08:28:04;;;;;;;29.52;4.90;;;9.50;99.90;;;;;;5047905;28;20096;-68
2021/10/21 08:30:33;;;;;;;20.00;2.90;;;9.50;99.90;;;;;;5053062;28;20025;-68
2021/10/21 08:33:00;;;;;;;25.83;3.05;;;9.50;99.90;;;;;;5050711;28;20024;-68
2021/10/21 08:35:28;;;;;;;26.23;4.00;;;9.60;99.90;;;;;;5052573;28;20044;-68
2021/10/21 08:37:54;;;;;;;32.47;3.17;;;9.60;99.90;;;;;;5052516;28;20029;-68
2021/10/21 08:40:20;;;;;;;19.05;2.85;;;9.70;99.90;;;;;;5032832;28;20033;-68
2021/10/21 08:42:46;;;;;;;28.15;2.90;;;9.70;99.90;;;;;;5032375;28;20052;-68
2021/10/21 08:45:12;;;;;;;26.23;3.45;;;9.70;99.90;;;;;;5032746;28;20029;-68
2021/10/21 08:47:42;;;;;;;24.55;2.97;;;9.60;99.90;;;;;;5052619;28;20033;-68
2021/10/21 08:50:09;;;;;;;25.05;2.92;;;9.60;99.90;;;;;;5052752;28;20021;-68
2021/10/21 08:52:35;;;;;;;18.40;2.67;;;9.60;99.90;;;;;;5052570;28;20029;-68
2021/10/21 08:55:00;;;;;;;22.30;3.25;;;9.70;99.90;;;;;;5052117;28;20036;-68
2021/10/21 08:57:26;;;;;;;30.85;3.17;;;9.80;99.90;;;;;;5052665;28;20104;-68
2021/10/21 08:59:52;;;;;;;23.98;3.47;;;9.80;99.90;;;;;;5052836;28;20473;-68
2021/10/21 09:03:02;;;;;;;17.10;3.10;;;9.90;99.90;;;;;;5053361;28;20021;-68
2021/10/21 09:08:06;;;;;;;26.58;2.63;;;9.90;99.90;;;;;;5055751;28;20017;-67
2021/10/21 09:10:31;;;;;;;23.98;2.50;;;9.90;99.90;;;;;;5056297;28;20044;-68
2021/10/21 09:12:59;;;;;;;15.52;2.08;;;9.90;99.90;;;;;;5056234;28;20021;-68
2021/10/21 09:15:27;;;;;;;30.10;2.53;;;9.90;99.90;;;;;;5056014;28;20033;-68
2021/10/21 09:17:54;;;;;;;27.75;3.47;;;9.90;99.90;;;;;;5056022;28;20021;-68
2021/10/21 09:20:25;;;;;;;20.63;3.38;;;9.80;99.90;;;;;;5055337;28;20388;-67
2021/10/21 09:22:55;;;;;;;28.60;3.83;;;9.80;99.90;;;;;;5056055;28;20028;-67
2021/10/21 09:25:27;;;;;;;15.57;2.50;;;9.80;99.90;;;;;;5056048;28;20494;-68
2021/10/21 09:27:56;;;;;;;31.63;3.75;;;9.70;99.90;;;;;;5055287;28;20025;-67
2021/10/21 09:30:51;;;;;;;30.52;3.17;;;9.70;99.90;;;;;;5055951;28;20078;-67
2021/10/21 09:33:17;;;;;;;25.23;3.50;;;9.80;99.90;;;;;;5056095;28;20021;-68
2021/10/21 09:36:12;;;;;;;23.05;2.78;;;9.90;99.90;;;;;;5055753;28;20039;-68
2021/10/21 09:38:48;;;;;;;21.08;2.15;;;9.90;99.90;;;;;;5047090;28;20047;-68
2021/10/21 09:41:16;;;;;;;16.65;2.08;;;10.00;99.90;;;;;;5055229;28;20067;-68
2021/10/21 09:43:42;;;;;;;18.40;1.60;;;10.20;99.90;;;;;;5054630;28;20392;-68
2021/10/21 09:46:41;;;;;;;14.93;1.98;;;10.20;99.90;;;;;;5048589;28;20037;-68
2021/10/21 09:49:28;;;;;;;14.00;1.83;;;10.30;99.90;;;;;;5051006;28;20056;-68
2021/10/21 09:51:54;;;;;;;5.90;1.23;;;10.20;99.90;;;;;;5047424;28;20051;-68
2021/10/21 09:54:20;;;;;;;11.98;1.67;;;10.10;99.90;;;;;;5054984;28;20518;-68
2021/10/21 09:57:05;;;;;;;14.85;1.75;;;10.00;99.90;;;;;;5055197;28;20444;-68
2021/10/21 09:59:35;;;;;;;14.70;2.10;;;10.10;99.90;;;;;;5070736;28;20082;-68
2021/10/21 10:02:15;;;;;;;18.73;2.35;;;10.00;99.90;;;;;;5055227;28;20388;-68
2021/10/21 10:04:46;;;;;;;15.50;1.65;;;9.90;99.90;;;;;;5055465;28;20075;-68
2021/10/21 10:07:12;;;;;;;13.93;1.73;;;9.60;99.90;;;;;;5054662;28;20052;-68
2021/10/21 10:09:38;;;;;;;17.55;2.10;;;9.40;99.90;;;;;;5055013;28;20541;-68
2021/10/21 10:12:05;;;;;;;25.23;3.05;;;9.40;99.90;;;;;;5054872;28;20025;-68
2021/10/21 10:14:34;;;;;;;26.77;4.00;;;9.50;99.90;;;;;;5042551;28;20053;-68
2021/10/21 10:17:01;;;;;;;16.33;2.40;;;9.60;99.90;;;;;;5044819;28;20068;-68
2021/10/21 10:19:28;;;;;;;15.25;1.75;;;9.70;99.90;;;;;;5042425;28;20084;-68
2021/10/21 10:21:57;;;;;;;8.75;1.73;;;9.80;99.90;;;;;;5045942;28;20079;-68
2021/10/21 10:24:33;;;;;;;15.23;1.92;;;9.80;99.90;;;;;;5048689;28;20063;-68
2021/10/21 10:27:02;;;;;;;17.67;2.78;;;9.80;99.90;;;;;;5049968;28;20029;-69
2021/10/21 10:29:31;;;;;;;18.17;2.55;;;9.90;99.90;;;;;;5048807;28;20025;-68
2021/10/21 10:31:59;;;;;;;17.50;2.25;;;10.00;99.90;;;;;;5047862;28;20025;-68
2021/10/21 10:34:35;;;;;;;14.55;2.15;;;10.00;99.90;;;;;;5057610;28;20660;-68
2021/10/21 10:37:29;;;;;;;15.55;2.65;;;10.00;99.90;;;;;;5037363;28;20021;-68
2021/10/21 10:40:03;;;;;;;13.40;2.72;;;10.20;99.90;;;;;;5030515;28;20037;-68
2021/10/21 10:42:31;;;;;;;23.88;2.45;;;10.40;99.90;;;;;;5050409;28;20025;-68
2021/10/21 10:45:00;;;;;;;24.27;2.17;;;10.40;99.90;;;;;;5042305;28;20059;-69
2021/10/21 10:47:40;;;;;;;17.30;2.40;;;10.50;99.90;;;;;;5059523;28;20170;-68
2021/10/21 10:50:17;;;;;;;10.68;2.03;;;10.50;99.90;;;;;;5043571;28;20038;-68
2021/10/21 10:52:50;;;;;;;11.85;2.05;;;10.50;99.90;;;;;;5045263;28;20022;-68
2021/10/21 10:55:16;;;;;;;21.17;3.10;;;10.30;99.90;;;;;;5041066;28;20101;-68
2021/10/21 10:57:45;;;;;;;16.05;2.03;;;10.40;99.90;;;;;;5045464;28;20025;-68
2021/10/21 11:00:35;;;;;;;25.25;3.20;;;10.40;99.90;;;;;;5049165;28;20040;-68
2021/10/21 11:03:01;;;;;;;19.10;2.78;;;10.50;99.90;;;;;;5056724;28;20025;-69
2021/10/21 11:05:45;;;;;;;14.80;2.85;;;10.70;99.90;;;;;;5042279;28;20484;-69
2021/10/21 11:08:12;;;;;;;36.83;5.97;;;10.90;99.90;;;;;;5047861;28;20029;-69
2021/10/21 11:10:43;;;;;;;16.63;2.13;;;10.80;99.90;;;;;;5045704;28;20029;-69
2021/10/21 11:13:39;;;;;;;14.32;2.65;;;10.70;99.90;;;;;;5036896;28;20033;-70
2021/10/21 11:16:38;;;;;;;16.60;1.98;;;10.60;99.90;;;;;;5042208;28;20049;-69
2021/10/21 11:19:04;;;;;;;17.83;2.53;;;10.60;99.90;;;;;;5044689;28;20044;-69
2021/10/21 11:21:46;;;;;;;19.88;2.95;;;10.80;99.90;;;;;;5050243;28;20480;-69
2021/10/21 11:24:45;;;;;;;10.77;2.60;;;10.90;99.90;;;;;;5042994;28;20107;-69
2021/10/21 11:27:12;;;;;;;20.58;2.85;;;11.00;99.90;;;;;;5057572;28;20052;-69
2021/10/21 11:29:38;;;;;;;18.75;2.92;;;11.20;99.90;;;;;;5049701;28;20045;-69
2021/10/21 11:32:08;;;;;;;20.95;2.97;;;11.20;99.90;;;;;;5045186;28;20029;-70
2021/10/21 11:34:35;;;;;;;21.67;2.72;;;11.20;99.90;;;;;;5041163;28;20029;-69
2021/10/21 11:37:01;;;;;;;10.23;2.33;;;11.40;99.90;;;;;;5050314;28;20053;-69
2021/10/21 11:39:35;;;;;;;24.10;3.55;;;11.50;99.90;;;;;;5044429;28;20448;-69
2021/10/21 11:42:05;;;;;;;18.40;2.40;;;11.60;99.90;;;;;;5038035;28;20453;-69
2021/10/21 11:44:30;;;;;;;22.02;2.67;;;11.70;99.90;;;;;;5048087;28;20029;-69
2021/10/21 11:47:01;;;;;;;7.95;1.35;;;11.90;99.90;;;;;;5044776;28;20392;-69
2021/10/21 11:49:35;;;;;;;9.35;1.92;;;11.80;99.90;;;;;;5052804;28;20480;-70
2021/10/21 11:52:11;;;;;;;10.85;1.65;;;11.80;99.90;;;;;;5051577;28;20028;-69
2021/10/21 11:54:39;;;;;;;15.27;1.75;;;11.90;99.90;;;;;;5047351;28;20035;-70
2021/10/21 11:57:05;;;;;;;11.48;2.22;;;12.00;99.90;;;;;;5052083;28;20021;-69
2021/10/21 11:59:37;;;;;;;11.85;1.73;;;12.10;99.90;;;;;;5052623;28;20115;-69
2021/10/21 12:02:13;;;;;;;11.70;1.98;;;12.20;99.90;;;;;;5052637;28;20082;-69
2021/10/21 12:04:42;;;;;;;12.95;2.10;;;11.30;99.90;;;;;;5038936;28;20498;-69
2021/10/21 12:07:08;;;;;;;17.70;2.33;;;10.60;99.90;;;;;;5052683;28;20407;-70
2021/10/21 12:09:35;;;;;;;21.70;3.05;;;10.20;99.90;;;;;;5147242;22;20052;-72
2021/10/21 12:12:06;;;;;;;18.08;2.25;;;10.10;99.90;;;;;;5032524;28;20053;-72
2021/10/21 12:14:36;;;;;;;8.75;1.80;;;10.10;99.90;;;;;;5032826;28;20032;-72
2021/10/21 12:17:04;;;;;;;10.55;1.60;;;10.50;99.90;;;;;;5031263;28;20029;-72
2021/10/21 12:19:30;;;;;;;17.13;2.15;;;11.10;99.90;;;;;;5028782;28;20025;-72
2021/10/21 12:22:16;;;;;;;7.22;1.17;;;11.60;99.90;;;;;;5012894;28;20026;-72
2021/10/21 12:24:43;;;;;;;9.48;1.48;;;11.50;99.90;;;;;;5013535;28;20026;-72
2021/10/21 12:27:10;;;;;;;14.60;2.10;;;11.00;99.90;;;;;;5013190;28;20115;-72
2021/10/21 12:29:43;;;;;;;10.95;1.63;;;10.40;99.90;;;;;;5012894;28;20026;-72
2021/10/21 12:32:21;;;;;;;15.52;1.77;;;9.60;99.90;;;;;;5013313;28;20018;-72
2021/10/21 12:34:47;;;;;;;6.40;1.40;;;9.30;99.90;;;;;;5012068;28;20076;-72
2021/10/21 12:37:18;;;;;;;15.35;2.25;;;9.00;99.90;;;;;;5013917;28;20025;-72
2021/10/21 12:39:44;;;;;;;14.40;2.17;;;8.90;99.90;;;;;;5016692;28;20022;-72
2021/10/21 12:42:24;;;;;;;16.17;2.35;;;8.90;99.90;;;;;;5017054;28;20022;-72
2021/10/21 12:45:00;;;;;;;11.68;1.75;;;8.90;99.90;;;;;;5015819;28;20026;-72
2021/10/21 12:47:35;;;;;;;9.30;1.55;;;9.00;99.90;;;;;;5019743;28;20052;-72